sensor_id;sensor_type;location;lat;lon;timestamp;pressure;altitude;pressure_sealevel;temperature;humidity
32320;BME280;19080;51.750;5.888;2023-09-12T00:00:06;101047.19;;;20.63;100.00
32320;BME280;19080;51.750;5.888;2023-09-12T00:02:39;101005.38;;;20.44;100.00
32320;BME280;19080;51.750;5.888;2023-09-12T00:05:06;101035.63;;;20.58;100.00
32320;BME280;19080;51.750;5.888;2023-09-12T00:07:35;101000.44;;;20.23;100.00
32320;BME280;19080;51.750;5.888;2023-09-12T00:10:02;101048.44;;;20.49;100.00
32320;BME280;19080;51.750;5.888;2023-09-12T00:12:29;100911.53;;;19.81;100.00
32320;BME280;19080;51.750;5.888;2023-09-12T00:14:56;101045.63;;;20.53;100.00
32320;BME280;19080;51.750;5.888;2023-09-12T00:17:22;101016.47;;;20.29;100.00
32320;BME280;19080;51.750;5.888;2023-09-12T00:19:49;100999.81;;;20.10;100.00
32320;BME280;19080;51.750;5.888;2023-09-12T00:22:16;101099.50;;;20.56;100.00
32320;BME280;19080;51.750;5.888;2023-09-12T00:24:42;101103.38;;;20.43;100.00
32320;BME280;19080;51.750;5.888;2023-09-12T00:27:09;101089.16;;;20.33;100.00
32320;BME280;19080;51.750;5.888;2023-09-12T00:29:36;101142.59;;;20.59;100.00
32320;BME280;19080;51.750;5.888;2023-09-12T00:32:03;101141.72;;;20.57;100.00
32320;BME280;19080;51.750;5.888;2023-09-12T00:34:29;101130.88;;;20.60;100.00
32320;BME280;19080;51.750;5.888;2023-09-12T00:36:56;101108.44;;;20.58;100.00
32320;BME280;19080;51.750;5.888;2023-09-12T00:39:22;101097.78;;;20.52;100.00
32320;BME280;19080;51.750;5.888;2023-09-12T00:41:49;101096.94;;;20.50;100.00
32320;BME280;19080;51.750;5.888;2023-09-12T00:44:16;101093.38;;;20.48;100.00
32320;BME280;19080;51.750;5.888;2023-09-12T00:46:44;101067.59;;;20.33;100.00
32320;BME280;19080;51.750;5.888;2023-09-12T00:49:13;101048.13;;;20.19;100.00
32320;BME280;19080;51.750;5.888;2023-09-12T00:51:40;101061.38;;;20.30;100.00
32320;BME280;19080;51.750;5.888;2023-09-12T00:54:08;101058.59;;;20.34;100.00
32320;BME280;19080;51.750;5.888;2023-09-12T00:56:35;101051.66;;;20.23;100.00
32320;BME280;19080;51.750;5.888;2023-09-12T00:59:04;101034.94;;;20.05;100.00
32320;BME280;19080;51.750;5.888;2023-09-12T01:01:31;101059.06;;;20.11;100.00
32320;BME280;19080;51.750;5.888;2023-09-12T01:03:58;101046.78;;;19.98;100.00
32320;BME280;19080;51.750;5.888;2023-09-12T01:06:26;101037.09;;;19.88;100.00
32320;BME280;19080;51.750;5.888;2023-09-12T01:08:55;101061.22;;;19.94;100.00
32320;BME280;19080;51.750;5.888;2023-09-12T01:11:22;101043.47;;;19.84;100.00
32320;BME280;19080;51.750;5.888;2023-09-12T01:13:50;101049.88;;;19.77;100.00
32320;BME280;19080;51.750;5.888;2023-09-12T01:16:17;101049.00;;;19.76;100.00
32320;BME280;19080;51.750;5.888;2023-09-12T01:18:43;100973.50;;;19.33;100.00
32320;BME280;19080;51.750;5.888;2023-09-12T01:21:32;101048.06;;;19.79;100.00
32320;BME280;19080;51.750;5.888;2023-09-12T01:24:23;101039.88;;;19.83;100.00
32320;BME280;19080;51.750;5.888;2023-09-12T01:27:18;101045.34;;;19.79;100.00
32320;BME280;19080;51.750;5.888;2023-09-12T01:29:46;101042.72;;;19.76;100.00
32320;BME280;19080;51.750;5.888;2023-09-12T01:32:14;100980.72;;;19.31;100.00
32320;BME280;19080;51.750;5.888;2023-09-12T01:34:43;101039.34;;;19.65;100.00
32320;BME280;19080;51.750;5.888;2023-09-12T01:37:09;101047.22;;;19.75;100.00
32320;BME280;19080;51.750;5.888;2023-09-12T01:39:36;101050.88;;;19.73;100.00
32320;BME280;19080;51.750;5.888;2023-09-12T01:42:03;101036.81;;;19.57;100.00
32320;BME280;19080;51.750;5.888;2023-09-12T01:44:32;100991.38;;;19.37;100.00
32320;BME280;19080;51.750;5.888;2023-09-12T01:47:03;101045.63;;;19.65;100.00
32320;BME280;19080;51.750;5.888;2023-09-12T01:49:32;101040.25;;;19.65;100.00
32320;BME280;19080;51.750;5.888;2023-09-12T01:52:00;101052.75;;;19.68;100.00
32320;BME280;19080;51.750;5.888;2023-09-12T01:54:28;101041.31;;;19.57;100.00
32320;BME280;19080;51.750;5.888;2023-09-12T01:56:56;101028.88;;;19.46;100.00
32320;BME280;19080;51.750;5.888;2023-09-12T01:59:24;101037.00;;;19.45;100.00
32320;BME280;19080;51.750;5.888;2023-09-12T02:01:51;101044.97;;;19.49;100.00
32320;BME280;19080;51.750;5.888;2023-09-12T02:04:18;100962.41;;;19.04;100.00
32320;BME280;19080;51.750;5.888;2023-09-12T02:06:45;100989.00;;;19.19;100.00
32320;BME280;19080;51.750;5.888;2023-09-12T02:09:13;101013.00;;;19.31;100.00
32320;BME280;19080;51.750;5.888;2023-09-12T02:11:40;101034.44;;;19.37;100.00
32320;BME280;19080;51.750;5.888;2023-09-12T02:14:07;101036.28;;;19.35;100.00
32320;BME280;19080;51.750;5.888;2023-09-12T02:16:36;100968.75;;;19.00;100.00
32320;BME280;19080;51.750;5.888;2023-09-12T02:19:07;101039.84;;;19.36;100.00
32320;BME280;19080;51.750;5.888;2023-09-12T02:21:34;100950.28;;;18.80;100.00
32320;BME280;19080;51.750;5.888;2023-09-12T02:24:01;101031.19;;;19.18;100.00
32320;BME280;19080;51.750;5.888;2023-09-12T02:26:27;101040.16;;;19.19;100.00
32320;BME280;19080;51.750;5.888;2023-09-12T02:28:54;101038.44;;;19.13;100.00
32320;BME280;19080;51.750;5.888;2023-09-12T02:31:21;101047.31;;;19.20;100.00
32320;BME280;19080;51.750;5.888;2023-09-12T02:33:47;101049.94;;;19.23;100.00
32320;BME280;19080;51.750;5.888;2023-09-12T02:36:14;101059.72;;;19.29;100.00
32320;BME280;19080;51.750;5.888;2023-09-12T02:38:41;101066.78;;;19.34;100.00
32320;BME280;19080;51.750;5.888;2023-09-12T02:41:08;101053.41;;;19.30;100.00
32320;BME280;19080;51.750;5.888;2023-09-12T02:43:35;101048.00;;;19.31;100.00
32320;BME280;19080;51.750;5.888;2023-09-12T02:46:02;101060.44;;;19.38;100.00
32320;BME280;19080;51.750;5.888;2023-09-12T02:48:28;101073.69;;;19.50;100.00
32320;BME280;19080;51.750;5.888;2023-09-12T02:50:56;101064.63;;;19.58;100.00
32320;BME280;19080;51.750;5.888;2023-09-12T02:53:22;101063.69;;;19.59;100.00
32320;BME280;19080;51.750;5.888;2023-09-12T02:55:51;101072.56;;;19.65;100.00
32320;BME280;19080;51.750;5.888;2023-09-12T02:58:18;101063.66;;;19.62;100.00
32320;BME280;19080;51.750;5.888;2023-09-12T03:00:44;101055.63;;;19.59;100.00
32320;BME280;19080;51.750;5.888;2023-09-12T03:03:11;101082.28;;;19.74;100.00
32320;BME280;19080;51.750;5.888;2023-09-12T03:05:38;101085.72;;;19.82;100.00
32320;BME280;19080;51.750;5.888;2023-09-12T03:08:06;100992.19;;;19.41;100.00
32320;BME280;19080;51.750;5.888;2023-09-12T03:10:33;101004.56;;;19.53;100.00
32320;BME280;19080;51.750;5.888;2023-09-12T03:12:59;101065.75;;;19.92;100.00
32320;BME280;19080;51.750;5.888;2023-09-12T03:15:26;101074.63;;;19.97;100.00
32320;BME280;19080;51.750;5.888;2023-09-12T03:17:52;101044.22;;;19.91;100.00
32320;BME280;19080;51.750;5.888;2023-09-12T03:20:19;100992.56;;;19.70;100.00
32320;BME280;19080;51.750;5.888;2023-09-12T03:22:46;101063.56;;;20.12;100.00
32320;BME280;19080;51.750;5.888;2023-09-12T03:25:13;101024.53;;;19.87;100.00
32320;BME280;19080;51.750;5.888;2023-09-12T03:27:40;101067.91;;;20.20;100.00
32320;BME280;19080;51.750;5.888;2023-09-12T03:30:07;101063.34;;;20.22;100.00
32320;BME280;19080;51.750;5.888;2023-09-12T03:32:34;101061.66;;;20.18;100.00
32320;BME280;19080;51.750;5.888;2023-09-12T03:35:01;101060.72;;;20.19;100.00
32320;BME280;19080;51.750;5.888;2023-09-12T03:37:28;101051.00;;;20.11;100.00
32320;BME280;19080;51.750;5.888;2023-09-12T03:39:55;101043.81;;;20.10;100.00
32320;BME280;19080;51.750;5.888;2023-09-12T03:42:22;100971.00;;;19.70;100.00
32320;BME280;19080;51.750;5.888;2023-09-12T03:44:53;100981.59;;;19.79;100.00
32320;BME280;19080;51.750;5.888;2023-09-12T03:47:19;101023.22;;;20.08;100.00
32320;BME280;19080;51.750;5.888;2023-09-12T03:49:46;100945.94;;;19.67;100.00
32320;BME280;19080;51.750;5.888;2023-09-12T03:52:13;100976.03;;;19.89;100.00
32320;BME280;19080;51.750;5.888;2023-09-12T03:54:39;100953.88;;;19.74;100.00
32320;BME280;19080;51.750;5.888;2023-09-12T03:57:07;101000.03;;;19.99;100.00
32320;BME280;19080;51.750;5.888;2023-09-12T03:59:34;101025.63;;;20.22;100.00
32320;BME280;19080;51.750;5.888;2023-09-12T04:02:02;101008.56;;;20.21;100.00
32320;BME280;19080;51.750;5.888;2023-09-12T04:04:29;100980.22;;;20.02;100.00
32320;BME280;19080;51.750;5.888;2023-09-12T04:06:56;101011.44;;;20.13;100.00
32320;BME280;19080;51.750;5.888;2023-09-12T04:09:22;101018.53;;;20.18;100.00
32320;BME280;19080;51.750;5.888;2023-09-12T04:11:49;100950.19;;;19.78;100.00
32320;BME280;19080;51.750;5.888;2023-09-12T04:14:18;101021.16;;;20.21;100.00
32320;BME280;19080;51.750;5.888;2023-09-12T04:16:45;100986.44;;;20.05;100.00
32320;BME280;19080;51.750;5.888;2023-09-12T04:19:15;101008.78;;;20.10;100.00
32320;BME280;19080;51.750;5.888;2023-09-12T04:21:42;101011.56;;;20.07;100.00
32320;BME280;19080;51.750;5.888;2023-09-12T04:24:09;101002.91;;;19.92;100.00
32320;BME280;19080;51.750;5.888;2023-09-12T04:26:35;101013.72;;;19.90;100.00
32320;BME280;19080;51.750;5.888;2023-09-12T04:29:02;101011.94;;;19.89;100.00
32320;BME280;19080;51.750;5.888;2023-09-12T04:31:29;101015.47;;;19.91;100.00
32320;BME280;19080;51.750;5.888;2023-09-12T04:33:56;101006.78;;;19.77;100.00
32320;BME280;19080;51.750;5.888;2023-09-12T04:36:22;101021.88;;;19.86;100.00
32320;BME280;19080;51.750;5.888;2023-09-12T04:38:49;101018.31;;;19.85;100.00
32320;BME280;19080;51.750;5.888;2023-09-12T04:41:16;100989.94;;;19.67;100.00
32320;BME280;19080;51.750;5.888;2023-09-12T04:43:44;101005.03;;;19.76;100.00
32320;BME280;19080;51.750;5.888;2023-09-12T04:46:12;101024.53;;;19.89;100.00
32320;BME280;19080;51.750;5.888;2023-09-12T04:48:39;100997.03;;;19.71;100.00
32320;BME280;19080;51.750;5.888;2023-09-12T04:51:07;101034.31;;;19.93;100.00
32320;BME280;19080;51.750;5.888;2023-09-12T04:53:33;100964.97;;;19.58;100.00
32320;BME280;19080;51.750;5.888;2023-09-12T04:56:03;101006.53;;;19.89;100.00
32320;BME280;19080;51.750;5.888;2023-09-12T04:58:30;101035.00;;;20.02;100.00
32320;BME280;19080;51.750;5.888;2023-09-12T05:00:56;101028.72;;;20.02;100.00
32320;BME280;19080;51.750;5.888;2023-09-12T05:03:23;101034.13;;;20.02;100.00
32320;BME280;19080;51.750;5.888;2023-09-12T05:05:53;101036.84;;;20.00;100.00
32320;BME280;19080;51.750;5.888;2023-09-12T05:08:20;101013.84;;;19.84;100.00
32320;BME280;19080;51.750;5.888;2023-09-12T05:10:46;101030.75;;;19.91;100.00
32320;BME280;19080;51.750;5.888;2023-09-12T05:13:13;101042.38;;;19.94;100.00
32320;BME280;19080;51.750;5.888;2023-09-12T05:15:40;101041.59;;;19.88;100.00
32320;BME280;19080;51.750;5.888;2023-09-12T05:18:07;101041.59;;;19.88;100.00
32320;BME280;19080;51.750;5.888;2023-09-12T05:20:35;101035.38;;;19.84;100.00
32320;BME280;19080;51.750;5.888;2023-09-12T05:23:02;101055.75;;;19.99;100.00
32320;BME280;19080;51.750;5.888;2023-09-12T05:25:29;100983.78;;;19.61;100.00
32320;BME280;19080;51.750;5.888;2023-09-12T05:27:56;101007.75;;;19.74;100.00
32320;BME280;19080;51.750;5.888;2023-09-12T05:30:23;101063.69;;;20.06;100.00
32320;BME280;19080;51.750;5.888;2023-09-12T05:32:50;101059.19;;;20.05;100.00
32320;BME280;19080;51.750;5.888;2023-09-12T05:35:17;101051.31;;;19.96;100.00
32320;BME280;19080;51.750;5.888;2023-09-12T05:37:50;101052.97;;;20.03;100.00
32320;BME280;19080;51.750;5.888;2023-09-12T05:40:18;101052.97;;;20.03;100.00
32320;BME280;19080;51.750;5.888;2023-09-12T05:42:45;101032.56;;;19.90;100.00
32320;BME280;19080;51.750;5.888;2023-09-12T05:45:11;101028.22;;;19.83;100.00
32320;BME280;19080;51.750;5.888;2023-09-12T05:47:38;100981.16;;;19.56;100.00
32320;BME280;19080;51.750;5.888;2023-09-12T05:50:06;101051.44;;;19.90;100.00
32320;BME280;19080;51.750;5.888;2023-09-12T05:52:33;101074.56;;;20.00;100.00
32320;BME280;19080;51.750;5.888;2023-09-12T05:55:00;101070.09;;;19.99;100.00
32320;BME280;19080;51.750;5.888;2023-09-12T05:57:27;100998.28;;;19.50;100.00
32320;BME280;19080;51.750;5.888;2023-09-12T05:59:54;101059.69;;;19.81;100.00
32320;BME280;19080;51.750;5.888;2023-09-12T06:02:20;101002.06;;;19.40;100.00
32320;BME280;19080;51.750;5.888;2023-09-12T06:04:47;101041.25;;;19.60;100.00
32320;BME280;19080;51.750;5.888;2023-09-12T06:07:14;101074.22;;;19.72;100.00
32320;BME280;19080;51.750;5.888;2023-09-12T06:09:40;101082.28;;;19.74;100.00
32320;BME280;19080;51.750;5.888;2023-09-12T06:12:07;101082.28;;;19.74;100.00
32320;BME280;19080;51.750;5.888;2023-09-12T06:14:34;101050.25;;;19.59;100.00
32320;BME280;19080;51.750;5.888;2023-09-12T06:17:00;101087.53;;;19.80;100.00
32320;BME280;19080;51.750;5.888;2023-09-12T06:19:27;101049.31;;;19.60;100.00
32320;BME280;19080;51.750;5.888;2023-09-12T06:21:54;100937.44;;;18.96;100.00
32320;BME280;19080;51.750;5.888;2023-09-12T06:24:22;101089.25;;;19.84;100.00
32320;BME280;19080;51.750;5.888;2023-09-12T06:26:50;101071.44;;;19.77;100.00
32320;BME280;19080;51.750;5.888;2023-09-12T06:29:17;101065.13;;;19.78;100.00
32320;BME280;19080;51.750;5.888;2023-09-12T06:31:43;101056.06;;;19.82;100.00
32320;BME280;19080;51.750;5.888;2023-09-12T06:34:10;101009.59;;;19.71;100.00
32320;BME280;19080;51.750;5.888;2023-09-12T06:36:38;101067.31;;;20.04;100.00
32320;BME280;19080;51.750;5.888;2023-09-12T06:39:05;101062.78;;;20.06;100.00
32320;BME280;19080;51.750;5.888;2023-09-12T06:41:32;101068.94;;;20.12;100.00
32320;BME280;19080;51.750;5.888;2023-09-12T06:43:59;101074.28;;;20.15;100.00
32320;BME280;19080;51.750;5.888;2023-09-12T06:46:26;101076.09;;;20.13;100.00
32320;BME280;19080;51.750;5.888;2023-09-12T06:48:53;101007.88;;;19.68;100.00
32320;BME280;19080;51.750;5.888;2023-09-12T06:51:23;101077.94;;;20.11;100.00
32320;BME280;19080;51.750;5.888;2023-09-12T06:53:52;100984.69;;;19.60;100.00
32320;BME280;19080;51.750;5.888;2023-09-12T06:56:18;101086.03;;;20.11;100.00
32320;BME280;19080;51.750;5.888;2023-09-12T06:58:45;101075.34;;;20.07;100.00
32320;BME280;19080;51.750;5.888;2023-09-12T07:01:11;101093.03;;;20.20;100.00
32320;BME280;19080;51.750;5.888;2023-09-12T07:03:38;101010.41;;;19.76;100.00
32320;BME280;19080;51.750;5.888;2023-09-12T07:06:05;101114.25;;;20.38;100.00
32320;BME280;19080;51.750;5.888;2023-09-12T07:08:32;101102.34;;;20.50;100.00
32320;BME280;19080;51.750;5.888;2023-09-12T07:10:59;101094.19;;;20.53;100.00
32320;BME280;19080;51.750;5.888;2023-09-12T07:13:32;101050.25;;;20.48;100.00
32320;BME280;19080;51.750;5.888;2023-09-12T07:15:59;101106.03;;;20.85;100.00
32320;BME280;19080;51.750;5.888;2023-09-12T07:18:31;101104.81;;;20.98;100.00
32320;BME280;19080;51.750;5.888;2023-09-12T07:21:03;101099.34;;;21.01;100.00
32320;BME280;19080;51.750;5.888;2023-09-12T07:23:30;101102.69;;;21.12;100.00
32320;BME280;19080;51.750;5.888;2023-09-12T07:25:57;101081.91;;;21.16;100.00
32320;BME280;19080;51.750;5.888;2023-09-12T07:28:25;101109.38;;;21.34;100.00
32320;BME280;19080;51.750;5.888;2023-09-12T07:30:51;101094.19;;;21.29;100.00
32320;BME280;19080;51.750;5.888;2023-09-12T07:33:19;101104.41;;;21.52;100.00
32320;BME280;19080;51.750;5.888;2023-09-12T07:35:45;101063.13;;;21.47;100.00
32320;BME280;19080;51.750;5.888;2023-09-12T07:38:13;101081.44;;;21.69;100.00
32320;BME280;19080;51.750;5.888;2023-09-12T07:40:42;101105.84;;;21.99;100.00
32320;BME280;19080;51.750;5.888;2023-09-12T07:43:09;101091.53;;;21.95;100.00
32320;BME280;19080;51.750;5.888;2023-09-12T07:45:36;101107.03;;;22.23;100.00
32320;BME280;19080;51.750;5.888;2023-09-12T07:48:10;101028.53;;;21.93;100.00
32320;BME280;19080;51.750;5.888;2023-09-12T07:50:38;101091.28;;;22.37;100.00
32320;BME280;19080;51.750;5.888;2023-09-12T07:53:05;101044.44;;;22.05;100.00
32320;BME280;19080;51.750;5.888;2023-09-12T07:55:38;101094.22;;;22.29;100.00
32320;BME280;19080;51.750;5.888;2023-09-12T07:58:16;101088.84;;;22.28;100.00
32320;BME280;19080;51.750;5.888;2023-09-12T08:00:45;101097.50;;;22.40;100.00
32320;BME280;19080;51.750;5.888;2023-09-12T08:03:13;100980.84;;;21.91;100.00
32320;BME280;19080;51.750;5.888;2023-09-12T08:05:40;101089.94;;;22.81;100.00
32320;BME280;19080;51.750;5.888;2023-09-12T08:08:06;101070.63;;;23.20;100.00
32320;BME280;19080;51.750;5.888;2023-09-12T08:10:33;101049.28;;;23.63;100.00
32320;BME280;19080;51.750;5.888;2023-09-12T08:12:59;101079.59;;;24.24;100.00
32320;BME280;19080;51.750;5.888;2023-09-12T08:15:26;101093.44;;;24.87;100.00
32320;BME280;19080;51.750;5.888;2023-09-12T08:17:54;101096.41;;;24.81;100.00
32320;BME280;19080;51.750;5.888;2023-09-12T08:20:21;101086.63;;;24.53;100.00
32320;BME280;19080;51.750;5.888;2023-09-12T08:22:48;101080.34;;;24.75;100.00
32320;BME280;19080;51.750;5.888;2023-09-12T08:25:15;101076.25;;;25.10;100.00
32320;BME280;19080;51.750;5.888;2023-09-12T08:27:42;101075.91;;;25.39;100.00
32320;BME280;19080;51.750;5.888;2023-09-12T08:30:12;101093.59;;;25.71;100.00
32320;BME280;19080;51.750;5.888;2023-09-12T08:32:40;101098.00;;;25.94;100.00
32320;BME280;19080;51.750;5.888;2023-09-12T08:35:11;101105.94;;;26.19;100.00
32320;BME280;19080;51.750;5.888;2023-09-12T08:37:40;101112.25;;;26.40;100.00
32320;BME280;19080;51.750;5.888;2023-09-12T08:40:08;101048.44;;;25.87;100.00
32320;BME280;19080;51.750;5.888;2023-09-12T08:42:40;101103.88;;;26.44;100.00
32320;BME280;19080;51.750;5.888;2023-09-12T08:45:15;101051.22;;;26.25;100.00
32320;BME280;19080;51.750;5.888;2023-09-12T08:47:53;101119.69;;;26.36;100.00
32320;BME280;19080;51.750;5.888;2023-09-12T08:50:22;101104.34;;;25.94;100.00
32320;BME280;19080;51.750;5.888;2023-09-12T08:52:50;101065.38;;;25.94;100.00
32320;BME280;19080;51.750;5.888;2023-09-12T08:55:31;101125.94;;;26.38;100.00
32320;BME280;19080;51.750;5.888;2023-09-12T08:58:02;101096.69;;;26.62;100.00
32320;BME280;19080;51.750;5.888;2023-09-12T09:00:29;101129.25;;;26.84;100.00
32320;BME280;19080;51.750;5.888;2023-09-12T09:02:57;101139.34;;;27.19;100.00
32320;BME280;19080;51.750;5.888;2023-09-12T09:05:25;101125.03;;;26.96;100.00
32320;BME280;19080;51.750;5.888;2023-09-12T09:07:54;101144.44;;;27.08;100.00
32320;BME280;19080;51.750;5.888;2023-09-12T09:10:22;101129.72;;;27.12;100.00
32320;BME280;19080;51.750;5.888;2023-09-12T09:13:09;101132.47;;;27.30;100.00
32320;BME280;19080;51.750;5.888;2023-09-12T09:15:37;101155.16;;;27.49;100.00
32320;BME280;19080;51.750;5.888;2023-09-12T09:18:09;101114.69;;;27.40;100.00
32320;BME280;19080;51.750;5.888;2023-09-12T09:20:37;101157.44;;;27.75;100.00
32320;BME280;19080;51.750;5.888;2023-09-12T09:23:06;101147.66;;;27.88;100.00
32320;BME280;19080;51.750;5.888;2023-09-12T09:25:39;101163.06;;;28.07;100.00
32320;BME280;19080;51.750;5.888;2023-09-12T09:28:20;101108.16;;;27.96;100.00
32320;BME280;19080;51.750;5.888;2023-09-12T09:30:49;101141.53;;;28.86;100.00
32320;BME280;19080;51.750;5.888;2023-09-12T09:33:18;101110.44;;;29.20;100.00
32320;BME280;19080;51.750;5.888;2023-09-12T09:35:48;101162.50;;;29.79;100.00
32320;BME280;19080;51.750;5.888;2023-09-12T09:38:19;101153.97;;;30.00;100.00
32320;BME280;19080;51.750;5.888;2023-09-12T09:40:46;101169.31;;;29.72;100.00
32320;BME280;19080;51.750;5.888;2023-09-12T09:43:13;101151.25;;;29.23;100.00
32320;BME280;19080;51.750;5.888;2023-09-12T09:45:46;101135.38;;;28.32;100.00
32320;BME280;19080;51.750;5.888;2023-09-12T09:48:20;101125.50;;;27.95;100.00
32320;BME280;19080;51.750;5.888;2023-09-12T09:50:48;101140.09;;;28.45;100.00
32320;BME280;19080;51.750;5.888;2023-09-12T09:53:15;101129.25;;;28.44;100.00
32320;BME280;19080;51.750;5.888;2023-09-12T09:55:41;101131.31;;;28.56;100.00
32320;BME280;19080;51.750;5.888;2023-09-12T09:58:15;101130.63;;;29.01;100.00
32320;BME280;19080;51.750;5.888;2023-09-12T10:00:46;101127.38;;;29.72;100.00
32320;BME280;19080;51.750;5.888;2023-09-12T10:03:18;101128.63;;;29.96;97.41
32320;BME280;19080;51.750;5.888;2023-09-12T10:05:50;101100.13;;;30.00;100.00
32320;BME280;19080;51.750;5.888;2023-09-12T10:08:17;101124.06;;;30.55;90.28
32320;BME280;19080;51.750;5.888;2023-09-12T10:10:45;101108.41;;;30.86;94.45
32320;BME280;19080;51.750;5.888;2023-09-12T10:13:14;101120.03;;;31.03;92.00
32320;BME280;19080;51.750;5.888;2023-09-12T10:15:43;101126.13;;;31.62;90.72
32320;BME280;19080;51.750;5.888;2023-09-12T10:18:14;101085.28;;;31.31;74.29
32320;BME280;19080;51.750;5.888;2023-09-12T10:21:00;101119.63;;;31.63;83.04
32320;BME280;19080;51.750;5.888;2023-09-12T10:23:37;101107.69;;;32.04;89.02
32320;BME280;19080;51.750;5.888;2023-09-12T10:26:11;101116.91;;;32.03;74.48
32320;BME280;19080;51.750;5.888;2023-09-12T10:28:40;101092.34;;;32.40;74.76
32320;BME280;19080;51.750;5.888;2023-09-12T10:31:09;101102.88;;;32.20;65.76
32320;BME280;19080;51.750;5.888;2023-09-12T10:33:38;101118.41;;;33.09;69.15
32320;BME280;19080;51.750;5.888;2023-09-12T10:36:06;101124.09;;;33.18;61.74
32320;BME280;19080;51.750;5.888;2023-09-12T10:38:40;101113.56;;;33.49;61.80
32320;BME280;19080;51.750;5.888;2023-09-12T10:41:08;101129.72;;;33.53;60.48
32320;BME280;19080;51.750;5.888;2023-09-12T10:43:39;101076.69;;;33.15;54.37
32320;BME280;19080;51.750;5.888;2023-09-12T10:46:10;101125.34;;;33.02;58.16
32320;BME280;19080;51.750;5.888;2023-09-12T10:48:37;101111.31;;;33.30;58.06
32320;BME280;19080;51.750;5.888;2023-09-12T10:51:07;101110.91;;;33.71;59.00
32320;BME280;19080;51.750;5.888;2023-09-12T10:53:34;101044.31;;;34.12;54.51
32320;BME280;19080;51.750;5.888;2023-09-12T11:01:43;101033.78;;;34.73;48.59
32320;BME280;19080;51.750;5.888;2023-09-12T11:06:47;101037.00;;;35.12;44.88
32320;BME280;19080;51.750;5.888;2023-09-12T11:11:46;101070.16;;;35.76;41.55
32320;BME280;19080;51.750;5.888;2023-09-12T11:14:14;101085.28;;;35.17;41.17
32320;BME280;19080;51.750;5.888;2023-09-12T11:16:42;101073.13;;;35.09;42.58
32320;BME280;19080;51.750;5.888;2023-09-12T11:21:46;101067.94;;;34.61;45.17
32320;BME280;19080;51.750;5.888;2023-09-12T11:24:14;101083.31;;;34.75;42.74
32320;BME280;19080;51.750;5.888;2023-09-12T11:27:01;101083.09;;;35.43;43.89
32320;BME280;19080;51.750;5.888;2023-09-12T11:29:36;101053.81;;;36.05;41.39
32320;BME280;19080;51.750;5.888;2023-09-12T11:32:03;101088.53;;;36.49;39.96
32320;BME280;19080;51.750;5.888;2023-09-12T11:34:41;100974.63;;;36.25;41.16
32320;BME280;19080;51.750;5.888;2023-09-12T11:37:09;101070.72;;;36.72;41.48
32320;BME280;19080;51.750;5.888;2023-09-12T11:39:37;101021.88;;;36.52;38.04
32320;BME280;19080;51.750;5.888;2023-09-12T11:42:04;101008.72;;;35.83;38.93
32320;BME280;19080;51.750;5.888;2023-09-12T11:44:31;101081.47;;;36.66;40.69
32320;BME280;19080;51.750;5.888;2023-09-12T11:47:01;101078.78;;;36.75;38.32
32320;BME280;19080;51.750;5.888;2023-09-12T11:49:37;101039.41;;;37.12;38.66
32320;BME280;19080;51.750;5.888;2023-09-12T11:52:08;101084.44;;;37.14;38.19
32320;BME280;19080;51.750;5.888;2023-09-12T11:54:35;101083.63;;;37.23;38.84
32320;BME280;19080;51.750;5.888;2023-09-12T11:57:02;100947.78;;;37.34;37.31
32320;BME280;19080;51.750;5.888;2023-09-12T11:59:29;101007.22;;;37.98;37.40
32320;BME280;19080;51.750;5.888;2023-09-12T12:01:56;101064.06;;;38.95;35.27
32320;BME280;19080;51.750;5.888;2023-09-12T12:04:24;101075.63;;;38.91;36.85
32320;BME280;19080;51.750;5.888;2023-09-12T12:06:52;101089.34;;;38.55;34.64
32320;BME280;19080;51.750;5.888;2023-09-12T12:09:19;101076.50;;;38.64;35.32
32320;BME280;19080;51.750;5.888;2023-09-12T12:11:46;101042.22;;;39.10;35.13
32320;BME280;19080;51.750;5.888;2023-09-12T12:14:14;101022.84;;;38.73;35.39
32320;BME280;19080;51.750;5.888;2023-09-12T12:16:43;101020.63;;;39.04;36.61
32320;BME280;19080;51.750;5.888;2023-09-12T12:19:11;101071.09;;;38.62;34.04
32320;BME280;19080;51.750;5.888;2023-09-12T12:21:41;101072.44;;;38.86;35.39
32320;BME280;19080;51.750;5.888;2023-09-12T12:24:14;101075.72;;;38.99;33.78
32320;BME280;19080;51.750;5.888;2023-09-12T12:26:41;101009.09;;;38.44;35.17
32320;BME280;19080;51.750;5.888;2023-09-12T12:29:10;101068.22;;;38.82;34.24
32320;BME280;19080;51.750;5.888;2023-09-12T12:31:37;101042.16;;;38.92;33.01
32320;BME280;19080;51.750;5.888;2023-09-12T12:34:05;101012.53;;;38.56;32.61
32320;BME280;19080;51.750;5.888;2023-09-12T12:36:53;101061.97;;;39.07;32.22
32320;BME280;19080;51.750;5.888;2023-09-12T12:39:24;101033.41;;;39.15;34.03
32320;BME280;19080;51.750;5.888;2023-09-12T12:41:52;100972.03;;;38.90;32.87
32320;BME280;19080;51.750;5.888;2023-09-12T12:44:20;101056.38;;;39.34;32.39
32320;BME280;19080;51.750;5.888;2023-09-12T12:46:50;101059.03;;;39.54;33.38
32320;BME280;19080;51.750;5.888;2023-09-12T12:49:19;101049.47;;;39.38;33.03
32320;BME280;19080;51.750;5.888;2023-09-12T12:51:47;101058.06;;;39.63;31.80
32320;BME280;19080;51.750;5.888;2023-09-12T12:54:14;101039.16;;;39.66;31.67
32320;BME280;19080;51.750;5.888;2023-09-12T12:56:43;101016.19;;;39.82;32.09
32320;BME280;19080;51.750;5.888;2023-09-12T12:59:10;101046.00;;;40.24;30.34
32320;BME280;19080;51.750;5.888;2023-09-12T13:01:38;101026.47;;;39.90;31.75